Aviation Digital Data Service (ADDS)

Output produced by METARs form (1030 UTC 07 February 2016)
found at http://aviationweather.gov/adds/metars/
 
KHPN 070527Z 0706/0806 VRB03KT P6SM SKC 
     FM072300 03007KT P6SM BKN250 AMD NOT SKED